createdAt,value
2019-05-26T00:00:48.151Z,10.52
2019-05-26T00:01:47.275Z,10.56
2019-05-26T00:02:47.263Z,10.59
2019-05-26T00:03:47.254Z,10.66
2019-05-26T00:04:47.293Z,10.71
2019-05-26T00:05:47.233Z,10.76
2019-05-26T00:06:47.223Z,10.74
2019-05-26T00:07:47.211Z,10.70
2019-05-26T00:08:47.200Z,10.67
2019-05-26T00:09:47.189Z,10.63
2019-05-26T00:10:47.208Z,10.63
2019-05-26T00:11:47.171Z,10.61
2019-05-26T00:12:47.158Z,10.63
2019-05-26T00:13:47.148Z,10.56
2019-05-26T00:14:47.163Z,10.53
2019-05-26T00:15:47.168Z,10.48
2019-05-26T00:16:47.139Z,10.51
2019-05-26T00:17:47.107Z,10.52
2019-05-26T00:18:47.098Z,10.52
2019-05-26T00:19:47.085Z,10.48
2019-05-26T00:20:47.847Z,10.52
2019-05-26T00:21:48.315Z,10.51
2019-05-26T00:22:47.053Z,10.51
2019-05-26T00:23:47.046Z,10.48
2019-05-26T00:24:47.036Z,10.45
2019-05-26T00:25:47.054Z,10.51
2019-05-26T00:26:47.011Z,10.55
2019-05-26T00:27:47.004Z,10.60
2019-05-26T00:28:47.000Z,10.61
2019-05-26T00:29:46.980Z,10.59
2019-05-26T00:30:47.818Z,10.66
2019-05-26T00:31:46.959Z,10.68
2019-05-26T00:32:47.698Z,10.74
2019-05-26T00:33:46.939Z,10.74
2019-05-26T00:34:46.949Z,10.78
2019-05-26T00:35:47.697Z,10.82
2019-05-26T00:36:46.906Z,10.82
2019-05-26T00:37:49.700Z,10.85
2019-05-26T00:38:46.905Z,10.85
2019-05-26T00:39:46.875Z,10.86
2019-05-26T00:40:46.886Z,10.85
2019-05-26T00:41:47.693Z,10.84
2019-05-26T00:42:46.843Z,10.84
2019-05-26T00:43:46.836Z,10.81
2019-05-26T00:44:46.858Z,10.71
2019-05-26T00:45:47.694Z,10.71
2019-05-26T00:46:46.802Z,10.66
2019-05-26T00:47:46.792Z,10.63
2019-05-26T00:48:46.930Z,10.61
2019-05-26T00:49:46.770Z,10.55
2019-05-26T00:50:46.789Z,10.48
2019-05-26T00:51:46.749Z,10.45
2019-05-26T00:52:46.745Z,10.44
2019-05-26T00:53:46.729Z,10.40
2019-05-26T00:54:46.717Z,10.45
2019-05-26T00:55:47.344Z,10.47
2019-05-26T00:56:46.708Z,10.47
2019-05-26T00:57:46.688Z,10.52
2019-05-26T00:58:46.677Z,10.52
2019-05-26T00:59:46.666Z,10.53
2019-05-26T01:00:46.696Z,10.48
2019-05-26T01:01:46.646Z,10.44
2019-05-26T01:02:46.633Z,10.42
2019-05-26T01:03:47.421Z,10.41
2019-05-26T01:04:46.612Z,10.41
2019-05-26T01:05:49.203Z,10.36
2019-05-26T01:06:46.591Z,10.34
2019-05-26T01:07:46.581Z,10.34
2019-05-26T01:08:46.571Z,10.33
2019-05-26T01:09:46.560Z,10.34
2019-05-26T01:10:46.582Z,10.36
2019-05-26T01:11:46.539Z,10.40
2019-05-26T01:12:46.532Z,10.41
2019-05-26T01:13:46.521Z,10.44
2019-05-26T01:14:46.520Z,10.48
2019-05-26T01:15:46.498Z,10.55
2019-05-26T01:16:46.517Z,10.56
2019-05-26T01:17:46.476Z,10.60
2019-05-26T01:18:46.505Z,10.63
2019-05-26T01:19:46.455Z,10.66
2019-05-26T01:20:46.447Z,10.66
2019-05-26T01:21:46.464Z,10.67
2019-05-26T01:22:46.423Z,10.68
2019-05-26T01:23:46.414Z,10.70
2019-05-26T01:24:46.403Z,10.73
2019-05-26T01:25:46.392Z,10.71
2019-05-26T01:26:46.411Z,10.73
2019-05-26T01:27:46.372Z,10.70
2019-05-26T01:28:46.363Z,10.66
2019-05-26T01:29:46.350Z,10.63
2019-05-26T01:30:46.339Z,10.55
2019-05-26T01:31:46.356Z,10.55
2019-05-26T01:32:46.325Z,10.55
2019-05-26T01:33:46.308Z,10.45
2019-05-26T01:34:46.329Z,10.42
2019-05-26T01:35:46.286Z,10.40
2019-05-26T01:36:46.306Z,10.38
2019-05-26T01:37:46.266Z,10.38
2019-05-26T01:38:46.256Z,10.33
2019-05-26T01:39:46.246Z,10.27
2019-05-26T01:40:46.256Z,10.29
2019-05-26T01:41:46.254Z,10.25
2019-05-26T01:42:46.254Z,10.23
2019-05-26T01:43:46.203Z,10.20
2019-05-26T01:44:46.209Z,10.17
2019-05-26T01:45:46.184Z,10.26
2019-05-26T01:46:46.200Z,10.25
2019-05-26T01:47:46.161Z,10.26
2019-05-26T01:48:46.151Z,10.22
2019-05-26T01:49:46.140Z,10.25
2019-05-26T01:50:46.129Z,10.27
2019-05-26T01:51:46.151Z,10.30
2019-05-26T01:52:46.107Z,10.33
2019-05-26T01:53:46.099Z,10.38
2019-05-26T01:54:46.095Z,10.38
2019-05-26T01:55:46.083Z,10.36
2019-05-26T01:56:46.094Z,10.38
2019-05-26T01:57:46.056Z,10.34
2019-05-26T01:58:46.045Z,10.34
2019-05-26T01:59:46.039Z,10.33
2019-05-26T02:00:46.024Z,10.30
2019-05-26T02:01:46.112Z,10.26
2019-05-26T02:02:46.973Z,10.20
2019-05-26T02:03:45.993Z,10.22
2019-05-26T02:04:45.983Z,10.23
2019-05-26T02:05:45.993Z,10.18
2019-05-26T02:06:45.982Z,10.15
2019-05-26T02:07:45.951Z,10.17
2019-05-26T02:08:45.940Z,10.12
2019-05-26T02:09:45.929Z,10.09
2019-05-26T02:10:45.925Z,10.05
2019-05-26T02:11:45.936Z,10.02
2019-05-26T02:12:45.898Z,10.04
2019-05-26T02:13:45.887Z,10.04
2019-05-26T02:14:45.878Z,10.07
2019-05-26T02:15:46.432Z,10.11
2019-05-26T02:16:45.878Z,10.01
2019-05-26T02:17:45.844Z,9.97
2019-05-26T02:18:45.834Z,9.94
2019-05-26T02:19:45.822Z,9.96
2019-05-26T02:20:45.814Z,9.96
2019-05-26T02:21:46.164Z,9.91
2019-05-26T02:22:45.792Z,9.96
2019-05-26T02:23:45.782Z,9.97
2019-05-26T02:24:45.770Z,9.93
2019-05-26T02:25:45.782Z,9.93
2019-05-26T02:26:45.779Z,9.89
2019-05-26T02:27:45.772Z,9.89
2019-05-26T02:28:45.730Z,9.89
2019-05-26T02:29:45.719Z,9.93
2019-05-26T02:30:45.740Z,9.91
2019-05-26T02:31:45.699Z,9.93
2019-05-26T02:32:45.700Z,9.94
2019-05-26T02:33:45.677Z,9.96
2019-05-26T02:34:46.512Z,9.93
2019-05-26T02:35:45.678Z,9.91
2019-05-26T02:36:45.648Z,9.99
2019-05-26T02:37:45.635Z,9.97
2019-05-26T02:39:01.310Z,9.96
2019-05-26T02:39:46.615Z,9.97
2019-05-26T02:40:45.625Z,10.02
2019-05-26T02:41:46.477Z,10.07
2019-05-26T02:42:45.581Z,10.09
2019-05-26T02:43:45.573Z,10.11
2019-05-26T02:44:45.569Z,10.14
2019-05-26T02:45:45.582Z,10.15
2019-05-26T02:46:45.568Z,10.17
2019-05-26T02:47:45.532Z,10.15
2019-05-26T02:48:45.519Z,10.15
2019-05-26T02:49:45.511Z,10.17
2019-05-26T02:50:46.038Z,10.17
2019-05-26T02:51:45.488Z,10.17
2019-05-26T02:52:45.475Z,10.18
2019-05-26T02:53:45.470Z,10.18
2019-05-26T02:54:45.516Z,10.18
2019-05-26T02:55:45.468Z,10.22
2019-05-26T02:56:45.435Z,10.22
2019-05-26T02:57:45.426Z,10.20
2019-05-26T02:58:45.413Z,10.18
2019-05-26T02:59:45.403Z,10.17
2019-05-26T03:00:45.430Z,10.15
2019-05-26T03:02:02.520Z,10.15
2019-05-26T03:02:46.373Z,10.12
2019-05-26T03:03:45.359Z,10.12
2019-05-26T03:04:45.377Z,10.12
2019-05-26T03:05:45.382Z,10.12
2019-05-26T03:06:45.331Z,10.09
2019-05-26T03:07:45.345Z,10.07
2019-05-26T03:08:45.307Z,10.04
2019-05-26T03:09:45.299Z,10.04
2019-05-26T03:10:45.291Z,9.97
2019-05-26T03:11:45.300Z,9.96
2019-05-26T03:12:45.269Z,9.94
2019-05-26T03:13:45.255Z,9.87
2019-05-26T03:14:45.244Z,9.90
2019-05-26T03:15:45.247Z,9.90
2019-05-26T03:16:45.246Z,9.91
2019-05-26T03:17:45.207Z,9.91
2019-05-26T03:18:45.196Z,9.90
2019-05-26T03:19:45.185Z,9.79
2019-05-26T03:20:45.195Z,9.65
2019-05-26T03:21:45.195Z,9.72
2019-05-26T03:22:45.163Z,9.71
2019-05-26T03:23:45.144Z,9.71
2019-05-26T03:24:45.146Z,9.68
2019-05-26T03:25:45.129Z,9.65
2019-05-26T03:26:45.146Z,9.68
2019-05-26T03:27:46.035Z,9.69
2019-05-26T03:28:45.098Z,9.69
2019-05-26T03:29:45.108Z,9.69
2019-05-26T03:30:45.082Z,9.68
2019-05-26T03:31:45.091Z,9.68
2019-05-26T03:32:45.056Z,9.71
2019-05-26T03:33:45.066Z,9.72
2019-05-26T03:34:45.040Z,9.75
2019-05-26T03:35:45.035Z,9.74
2019-05-26T03:36:45.041Z,9.75
2019-05-26T03:37:45.003Z,9.78
2019-05-26T03:38:44.985Z,9.79
2019-05-26T03:39:46.301Z,9.79
2019-05-26T03:40:44.987Z,9.75
2019-05-26T03:41:44.987Z,9.74
2019-05-26T03:42:44.945Z,9.74
2019-05-26T03:43:45.760Z,9.65
2019-05-26T03:44:44.924Z,9.64
2019-05-26T03:45:44.911Z,9.71
2019-05-26T03:46:44.931Z,9.75
2019-05-26T03:47:44.898Z,9.76
2019-05-26T03:48:44.916Z,9.81
2019-05-26T03:49:44.877Z,9.84
2019-05-26T03:50:44.861Z,9.90
2019-05-26T03:51:44.880Z,9.93
2019-05-26T03:52:44.924Z,9.93
2019-05-26T03:53:44.838Z,9.94
2019-05-26T03:54:44.820Z,10.02
2019-05-26T03:55:46.159Z,10.08
2019-05-26T03:56:45.636Z,10.11
2019-05-26T03:57:44.816Z,10.15
2019-05-26T03:58:44.776Z,10.22
2019-05-26T03:59:44.765Z,10.23
2019-05-26T04:00:44.755Z,10.25
2019-05-26T04:01:44.786Z,10.29
2019-05-26T04:02:44.741Z,10.32
2019-05-26T04:03:44.736Z,10.36
2019-05-26T04:04:44.715Z,10.36
2019-05-26T04:05:44.703Z,10.40
2019-05-26T04:06:45.777Z,10.44
2019-05-26T04:07:44.681Z,10.44
2019-05-26T04:08:44.670Z,10.51
2019-05-26T04:10:02.966Z,10.53
2019-05-26T04:10:45.649Z,10.60
2019-05-26T04:11:45.297Z,10.61
2019-05-26T04:12:44.652Z,10.61
2019-05-26T04:13:44.625Z,10.66
2019-05-26T04:14:44.607Z,10.67
2019-05-26T04:15:44.596Z,10.71
2019-05-26T04:16:44.621Z,10.79
2019-05-26T04:17:44.610Z,10.84
2019-05-26T04:18:44.565Z,10.88
2019-05-26T04:19:44.558Z,10.91
2019-05-26T04:20:45.966Z,10.92
2019-05-26T04:21:44.533Z,10.96
2019-05-26T04:22:45.203Z,10.97
2019-05-26T04:23:44.513Z,10.99
2019-05-26T04:24:44.501Z,11.00
2019-05-26T04:25:44.499Z,11.03
2019-05-26T04:26:44.482Z,11.04
2019-05-26T04:27:44.537Z,11.09
2019-05-26T04:28:44.470Z,11.14
2019-05-26T04:29:44.450Z,11.17
2019-05-26T04:30:44.440Z,11.19
2019-05-26T04:31:44.427Z,11.22
2019-05-26T04:32:44.446Z,11.25
2019-05-26T04:33:44.414Z,11.28
2019-05-26T04:34:44.396Z,11.33
2019-05-26T04:35:44.422Z,11.35
2019-05-26T04:36:44.393Z,11.37
2019-05-26T04:37:44.396Z,11.40
2019-05-26T04:38:44.355Z,11.36
2019-05-26T04:39:44.356Z,11.39
2019-05-26T04:40:44.342Z,11.25
2019-05-26T04:41:44.398Z,11.32
2019-05-26T04:42:44.347Z,11.29
2019-05-26T04:43:44.318Z,11.32
2019-05-26T04:44:44.322Z,11.42
2019-05-26T04:45:44.281Z,11.44
2019-05-26T04:46:45.192Z,11.47
2019-05-26T04:47:44.290Z,11.55
2019-05-26T04:48:44.250Z,11.60
2019-05-26T04:49:44.241Z,11.65
2019-05-26T04:50:44.228Z,11.61
2019-05-26T04:51:44.220Z,11.57
2019-05-26T04:53:04.561Z,11.67
2019-05-26T04:53:45.223Z,11.67
2019-05-26T04:54:44.208Z,11.69
2019-05-26T04:55:44.175Z,11.90
2019-05-26T04:56:44.168Z,11.95
2019-05-26T04:57:44.184Z,11.95
2019-05-26T04:58:44.146Z,12.14
2019-05-26T04:59:44.134Z,12.24
2019-05-26T05:00:44.124Z,12.37
2019-05-26T05:01:44.191Z,12.47
2019-05-26T05:02:44.154Z,12.52
2019-05-26T05:03:44.101Z,12.70
2019-05-26T05:04:44.082Z,12.65
2019-05-26T05:05:44.071Z,12.70
2019-05-26T05:06:44.060Z,12.85
2019-05-26T05:07:44.080Z,12.93
2019-05-26T05:08:44.039Z,13.00
2019-05-26T05:09:44.028Z,13.00
2019-05-26T05:10:44.018Z,13.04
2019-05-26T05:11:44.007Z,12.97
2019-05-26T05:12:44.776Z,13.14
2019-05-26T05:13:43.988Z,13.33
2019-05-26T05:14:44.682Z,13.55
2019-05-26T05:15:43.965Z,13.48
2019-05-26T05:16:43.958Z,13.63
2019-05-26T05:17:43.965Z,13.63
2019-05-26T05:18:43.933Z,13.64
2019-05-26T05:19:44.796Z,13.66
2019-05-26T05:20:44.776Z,13.71
2019-05-26T05:21:43.902Z,13.88
2019-05-26T05:22:43.992Z,13.88
2019-05-26T05:23:43.889Z,13.96
2019-05-26T05:24:43.868Z,14.00
2019-05-26T05:25:44.389Z,14.18
2019-05-26T05:26:43.882Z,14.25
2019-05-26T05:27:44.418Z,14.33
2019-05-26T05:28:43.825Z,14.35
2019-05-26T05:29:43.817Z,14.40
2019-05-26T05:30:43.808Z,14.46
2019-05-26T05:31:43.787Z,14.42
2019-05-26T05:32:43.778Z,14.37
2019-05-26T05:33:43.796Z,14.33
2019-05-26T05:34:43.756Z,14.32
2019-05-26T05:35:43.753Z,14.32
2019-05-26T05:36:43.734Z,14.32
2019-05-26T05:37:44.344Z,14.37
2019-05-26T05:38:43.748Z,14.45
2019-05-26T05:39:43.704Z,14.54
2019-05-26T05:40:58.337Z,14.68
2019-05-26T05:41:44.684Z,14.77
2019-05-26T05:42:43.671Z,14.91
2019-05-26T05:43:43.691Z,14.92
2019-05-26T05:44:43.653Z,15.11
2019-05-26T05:45:44.841Z,15.28
2019-05-26T05:46:43.631Z,15.39
2019-05-26T05:47:44.957Z,15.36
2019-05-26T05:48:43.640Z,15.43
2019-05-26T05:49:43.599Z,15.47
2019-05-26T05:50:43.589Z,15.46
2019-05-26T05:51:43.578Z,15.39
2019-05-26T05:52:43.567Z,15.39
2019-05-26T05:53:44.448Z,15.47
2019-05-26T05:54:43.547Z,15.60
2019-05-26T05:55:43.535Z,15.64
2019-05-26T05:56:43.525Z,15.71
2019-05-26T05:57:43.514Z,15.80
2019-05-26T05:58:43.525Z,15.86
2019-05-26T05:59:43.524Z,15.90
2019-05-26T06:00:43.484Z,16.08
2019-05-26T06:01:43.476Z,16.17
2019-05-26T06:02:43.470Z,16.24
2019-05-26T06:03:43.494Z,16.27
2019-05-26T06:04:43.951Z,16.38
2019-05-26T06:05:43.433Z,16.43
2019-05-26T06:06:43.412Z,16.46
2019-05-26T06:07:43.413Z,16.48
2019-05-26T06:08:43.500Z,16.48
2019-05-26T06:09:44.789Z,16.30
2019-05-26T06:10:43.400Z,16.42
2019-05-26T06:11:43.369Z,16.52
2019-05-26T06:12:44.301Z,16.60
2019-05-26T06:13:43.339Z,16.73
2019-05-26T06:14:43.328Z,16.83
2019-05-26T06:15:43.351Z,16.79
2019-05-26T06:16:43.314Z,16.86
2019-05-26T06:17:43.308Z,16.88
2019-05-26T06:18:43.287Z,16.86
2019-05-26T06:19:43.286Z,16.98
2019-05-26T06:20:43.295Z,16.93
2019-05-26T06:21:43.944Z,16.94
2019-05-26T06:22:43.245Z,16.93
2019-05-26T06:23:43.242Z,16.88
2019-05-26T06:24:43.224Z,16.86
2019-05-26T06:25:43.261Z,16.97
2019-05-26T06:26:43.225Z,16.94
2019-05-26T06:27:43.203Z,16.98
2019-05-26T06:28:43.209Z,17.07
2019-05-26T06:29:57.782Z,16.94
2019-05-26T06:30:44.202Z,16.94
2019-05-26T06:31:43.246Z,16.85
2019-05-26T06:32:43.147Z,16.91
2019-05-26T06:33:43.938Z,17.03
2019-05-26T06:34:43.119Z,17.06
2019-05-26T06:35:43.108Z,17.07
2019-05-26T06:36:43.127Z,17.16
2019-05-26T06:37:43.088Z,17.40
2019-05-26T06:38:43.076Z,17.44
2019-05-26T06:39:43.066Z,17.31
2019-05-26T06:40:43.065Z,17.40
2019-05-26T06:41:43.080Z,17.40
2019-05-26T06:42:43.045Z,17.48
2019-05-26T06:43:43.835Z,17.54
2019-05-26T06:44:52.936Z,17.49
2019-05-26T06:45:45.050Z,17.63
2019-05-26T06:46:43.020Z,17.52
2019-05-26T06:47:43.959Z,17.64
2019-05-26T06:48:42.972Z,17.70
2019-05-26T06:49:42.969Z,17.77
2019-05-26T06:50:43.472Z,18.02
2019-05-26T06:51:42.969Z,18.17
2019-05-26T06:52:42.931Z,18.20
2019-05-26T06:53:42.920Z,18.23
2019-05-26T06:54:42.907Z,18.33
2019-05-26T06:55:42.899Z,18.44
2019-05-26T06:56:42.916Z,18.58
2019-05-26T06:57:43.509Z,18.60
2019-05-26T06:58:42.871Z,18.63
2019-05-26T06:59:42.851Z,18.66
2019-05-26T07:00:42.866Z,18.69
2019-05-26T07:01:42.858Z,18.45
2019-05-26T07:02:42.825Z,18.33
2019-05-26T07:03:42.820Z,18.41
2019-05-26T07:04:42.804Z,18.39
2019-05-26T07:05:42.795Z,18.48
2019-05-26T07:06:42.805Z,18.65
2019-05-26T07:07:43.633Z,18.70
2019-05-26T07:08:42.755Z,18.78
2019-05-26T07:09:42.743Z,18.88
2019-05-26T07:10:42.733Z,19.02
2019-05-26T07:11:55.676Z,18.91
2019-05-26T07:12:43.712Z,18.91
2019-05-26T07:13:42.704Z,18.98
2019-05-26T07:14:42.713Z,18.81
2019-05-26T07:15:42.682Z,18.85
2019-05-26T07:16:42.701Z,18.98
2019-05-26T07:17:42.662Z,18.92
2019-05-26T07:18:42.673Z,19.02
2019-05-26T07:19:42.640Z,19.19
2019-05-26T07:20:42.679Z,19.32
2019-05-26T07:21:42.647Z,19.39
2019-05-26T07:22:43.510Z,19.55
2019-05-26T07:23:42.597Z,19.63
2019-05-26T07:24:42.597Z,19.68
2019-05-26T07:25:42.576Z,19.80
2019-05-26T07:26:42.595Z,19.87
2019-05-26T07:27:42.555Z,19.96
2019-05-26T07:28:42.545Z,19.96
2019-05-26T07:29:42.532Z,19.94
2019-05-26T07:30:43.045Z,19.94
2019-05-26T07:31:42.543Z,20.02
2019-05-26T07:32:42.504Z,20.06
2019-05-26T07:33:42.494Z,20.13
2019-05-26T07:34:42.483Z,20.11
2019-05-26T07:35:42.469Z,20.10
2019-05-26T07:36:42.466Z,20.18
2019-05-26T07:37:42.473Z,20.16
2019-05-26T07:38:42.443Z,20.03
2019-05-26T07:39:42.501Z,20.03
2019-05-26T07:40:42.423Z,20.06
2019-05-26T07:41:42.403Z,20.31
2019-05-26T07:42:43.198Z,20.33
2019-05-26T07:43:42.409Z,20.35
2019-05-26T07:44:42.391Z,20.50
2019-05-26T07:45:42.360Z,20.50
2019-05-26T07:46:42.354Z,20.64
2019-05-26T07:47:42.389Z,20.54
2019-05-26T07:48:42.328Z,20.59
2019-05-26T07:49:42.325Z,20.80
2019-05-26T07:50:42.307Z,20.80
2019-05-26T07:51:42.297Z,20.94
2019-05-26T07:52:42.316Z,20.66
2019-05-26T07:53:42.279Z,20.73
2019-05-26T07:54:42.305Z,20.51
2019-05-26T07:55:42.254Z,20.47
2019-05-26T07:56:42.245Z,20.79
2019-05-26T07:57:42.262Z,20.92
2019-05-26T07:58:42.224Z,21.22
2019-05-26T07:59:42.213Z,21.37
2019-05-26T08:00:42.202Z,21.43
2019-05-26T08:01:43.142Z,21.27
2019-05-26T08:02:42.202Z,21.19
2019-05-26T08:03:42.174Z,21.38
2019-05-26T08:04:42.160Z,21.61
2019-05-26T08:05:42.167Z,21.68
2019-05-26T08:06:43.122Z,21.54
2019-05-26T08:07:42.151Z,21.38
2019-05-26T08:08:42.118Z,21.24
2019-05-26T08:09:42.111Z,21.14
2019-05-26T08:10:42.099Z,21.44
2019-05-26T08:11:42.088Z,21.32
2019-05-26T08:12:42.105Z,21.56
2019-05-26T08:13:42.065Z,21.61
2019-05-26T08:14:42.058Z,21.64
2019-05-26T08:15:42.109Z,21.80
2019-05-26T08:16:42.036Z,21.96
2019-05-26T08:17:42.048Z,22.02
2019-05-26T08:18:42.015Z,21.96
2019-05-26T08:19:42.006Z,21.80
2019-05-26T08:20:41.996Z,21.72
2019-05-26T08:21:41.975Z,21.59
2019-05-26T08:22:42.035Z,21.29
2019-05-26T08:23:42.548Z,21.09
2019-05-26T08:24:42.754Z,21.47
2019-05-26T08:25:41.958Z,21.84
2019-05-26T08:26:41.930Z,21.92
2019-05-26T08:27:41.942Z,21.90
2019-05-26T08:28:41.902Z,21.92
2019-05-26T08:29:41.899Z,21.91
2019-05-26T08:30:41.882Z,22.27
2019-05-26T08:31:41.877Z,22.39
2019-05-26T08:32:41.861Z,22.21
2019-05-26T08:33:41.880Z,22.24
2019-05-26T08:34:41.862Z,22.12
2019-05-26T08:35:41.867Z,22.55
2019-05-26T08:36:41.819Z,22.05
2019-05-26T08:37:41.809Z,22.45
2019-05-26T08:38:41.845Z,22.62
2019-05-26T08:39:41.788Z,22.86
2019-05-26T08:40:41.778Z,23.04
2019-05-26T08:41:41.785Z,23.17
2019-05-26T08:42:44.513Z,22.97
2019-05-26T08:43:41.768Z,23.09
2019-05-26T08:44:41.735Z,22.83
2019-05-26T08:45:41.815Z,22.82
2019-05-26T08:46:41.714Z,22.92
2019-05-26T08:47:41.704Z,23.13
2019-05-26T08:48:41.723Z,23.15
2019-05-26T08:49:41.684Z,23.16
2019-05-26T08:50:41.674Z,23.35
2019-05-26T08:51:41.663Z,23.46
2019-05-26T08:52:41.659Z,23.68
2019-05-26T08:53:41.671Z,23.90
2019-05-26T08:54:41.636Z,24.00
2019-05-26T08:55:41.622Z,23.91
2019-05-26T08:56:41.611Z,23.83
2019-05-26T08:57:41.605Z,23.70
2019-05-26T08:58:41.611Z,23.84
2019-05-26T08:59:41.577Z,23.93
2019-05-26T09:00:41.575Z,24.12
2019-05-26T09:01:41.559Z,24.21
2019-05-26T09:02:41.593Z,24.22
2019-05-26T09:03:41.560Z,24.08
2019-05-26T09:04:41.519Z,24.10
2019-05-26T09:05:41.509Z,24.30
2019-05-26T09:06:41.505Z,24.34
2019-05-26T09:07:41.509Z,24.40
2019-05-26T09:08:41.506Z,24.31
2019-05-26T09:09:41.471Z,24.31
2019-05-26T09:10:41.464Z,23.73
2019-05-26T09:11:41.447Z,23.79
2019-05-26T09:12:41.446Z,23.94
2019-05-26T09:13:41.456Z,24.06
2019-05-26T09:14:41.457Z,24.21
2019-05-26T09:15:41.413Z,24.31
2019-05-26T09:16:41.401Z,24.43
2019-05-26T09:17:41.384Z,24.67
2019-05-26T09:18:42.416Z,24.85
2019-05-26T09:19:41.398Z,24.71
2019-05-26T09:20:41.423Z,24.65
2019-05-26T09:21:41.375Z,24.80
2019-05-26T09:22:41.336Z,24.73
2019-05-26T09:23:41.351Z,24.64
2019-05-26T09:24:41.334Z,24.73
2019-05-26T09:25:41.810Z,24.65
2019-05-26T09:26:42.211Z,24.47
2019-05-26T09:27:41.279Z,24.43
2019-05-26T09:28:41.299Z,24.68
2019-05-26T09:29:41.268Z,24.43
2019-05-26T09:30:41.252Z,24.77
2019-05-26T09:31:41.238Z,24.96
2019-05-26T09:32:41.230Z,24.58
2019-05-26T09:33:41.239Z,24.60
2019-05-26T09:34:41.964Z,24.73
2019-05-26T09:35:41.948Z,24.98
2019-05-26T09:36:41.220Z,25.17
2019-05-26T09:37:41.180Z,25.23
2019-05-26T09:38:41.193Z,25.28
2019-05-26T09:39:41.155Z,25.10
2019-05-26T09:40:41.154Z,25.13
2019-05-26T09:41:41.138Z,25.05
2019-05-26T09:42:41.124Z,24.77
2019-05-26T09:43:41.175Z,25.09
2019-05-26T09:44:41.102Z,24.55
2019-05-26T09:45:41.093Z,24.52
2019-05-26T09:46:41.965Z,24.40
2019-05-26T09:47:41.073Z,24.49
2019-05-26T09:48:41.743Z,24.60
2019-05-26T09:49:41.052Z,24.27
2019-05-26T09:50:41.041Z,24.73
2019-05-26T09:51:41.029Z,25.06
2019-05-26T09:52:41.020Z,25.10
2019-05-26T09:53:41.030Z,25.03
2019-05-26T09:54:41.002Z,25.27
2019-05-26T09:55:40.987Z,25.39
2019-05-26T09:56:40.977Z,25.28
2019-05-26T09:57:40.973Z,25.38
2019-05-26T09:58:41.839Z,25.55
2019-05-26T09:59:40.945Z,25.83
2019-05-26T10:00:40.935Z,26.09
2019-05-26T10:01:40.927Z,26.25
2019-05-26T10:02:40.947Z,26.25
2019-05-26T10:03:40.906Z,26.40
2019-05-26T10:04:40.924Z,26.57
2019-05-26T10:05:41.377Z,26.52
2019-05-26T10:06:41.517Z,26.58
2019-05-26T10:07:40.877Z,26.43
2019-05-26T10:08:40.848Z,26.51
2019-05-26T10:09:40.866Z,26.21
2019-05-26T10:10:41.375Z,25.92
2019-05-26T10:11:40.816Z,25.65
2019-05-26T10:12:40.805Z,25.42
2019-05-26T10:13:40.835Z,25.76
2019-05-26T10:14:40.817Z,25.92
2019-05-26T10:15:40.774Z,26.07
2019-05-26T10:16:40.763Z,26.15
2019-05-26T10:17:40.753Z,26.33
2019-05-26T10:18:40.774Z,26.60
2019-05-26T10:19:40.819Z,26.97
2019-05-26T10:20:40.728Z,26.91
2019-05-26T10:21:40.712Z,25.92
2019-05-26T10:22:40.723Z,24.67
2019-05-26T10:23:40.690Z,24.68
2019-05-26T10:24:40.709Z,24.84
2019-05-26T10:25:40.836Z,25.09
2019-05-26T10:26:41.530Z,25.14
2019-05-26T10:27:40.651Z,25.42
2019-05-26T10:28:40.639Z,25.72
2019-05-26T10:29:40.658Z,25.79
2019-05-26T10:30:41.407Z,25.92
2019-05-26T10:31:40.608Z,25.77
2019-05-26T10:32:40.598Z,25.52
2019-05-26T10:33:41.428Z,25.30
2019-05-26T10:34:40.607Z,25.36
2019-05-26T10:35:40.574Z,25.55
2019-05-26T10:36:40.742Z,25.85
2019-05-26T10:37:41.416Z,25.73
2019-05-26T10:38:42.175Z,25.62
2019-05-26T10:39:44.869Z,25.79
2019-05-26T10:40:40.683Z,25.65
2019-05-26T10:41:41.414Z,25.75
2019-05-26T10:42:40.494Z,25.82
2019-05-26T10:43:47.403Z,25.85
2019-05-26T10:44:41.534Z,25.80
2019-05-26T10:45:40.463Z,25.99
2019-05-26T10:46:40.452Z,25.90
2019-05-26T10:47:40.446Z,25.80
2019-05-26T10:48:40.432Z,25.98
2019-05-26T10:49:40.452Z,26.02
2019-05-26T10:50:40.420Z,25.92
2019-05-26T10:51:40.601Z,25.75
2019-05-26T10:52:40.396Z,25.51
2019-05-26T10:53:40.381Z,25.27
2019-05-26T10:54:40.397Z,25.00
2019-05-26T10:55:40.359Z,24.81
2019-05-26T10:56:40.349Z,25.02
2019-05-26T10:57:40.546Z,25.21
2019-05-26T10:58:40.331Z,24.98
2019-05-26T10:59:40.347Z,25.17
2019-05-26T11:00:40.308Z,25.23
2019-05-26T11:01:40.302Z,25.03
2019-05-26T11:02:40.329Z,25.15
2019-05-26T11:03:40.279Z,25.13
2019-05-26T11:04:41.036Z,24.95
2019-05-26T11:05:40.264Z,25.14
2019-05-26T11:06:40.314Z,25.51
2019-05-26T11:07:40.236Z,25.67
2019-05-26T11:08:41.019Z,25.98
2019-05-26T11:09:40.259Z,26.25
2019-05-26T11:10:41.158Z,26.47
2019-05-26T11:11:40.194Z,26.70
2019-05-26T11:12:40.234Z,26.67
2019-05-26T11:13:40.919Z,26.54
2019-05-26T11:14:40.376Z,26.36
2019-05-26T11:15:40.312Z,25.67
2019-05-26T11:16:40.140Z,25.40
2019-05-26T11:17:40.131Z,26.01
2019-05-26T11:18:40.243Z,26.39
2019-05-26T11:19:40.114Z,26.54
2019-05-26T11:20:40.121Z,26.39
2019-05-26T11:21:40.094Z,26.73
2019-05-26T11:22:40.088Z,26.82
2019-05-26T11:23:40.597Z,26.87
2019-05-26T11:24:40.156Z,27.09
2019-05-26T11:25:41.187Z,27.27
2019-05-26T11:26:40.039Z,27.39
2019-05-26T11:27:40.019Z,27.34
2019-05-26T11:28:40.015Z,27.34
2019-05-26T11:29:40.022Z,27.41
2019-05-26T11:30:40.017Z,27.57
2019-05-26T11:31:39.987Z,27.65
2019-05-26T11:32:39.977Z,27.50
2019-05-26T11:33:40.038Z,27.04
2019-05-26T11:34:40.517Z,27.09
2019-05-26T11:35:39.966Z,27.34
2019-05-26T11:36:40.541Z,27.74
2019-05-26T11:37:39.915Z,27.90
2019-05-26T11:38:39.913Z,27.96
2019-05-26T11:39:39.899Z,27.96
2019-05-26T11:40:39.915Z,27.99
2019-05-26T11:41:39.944Z,28.21
2019-05-26T11:42:39.866Z,28.27
2019-05-26T11:43:39.854Z,27.85
2019-05-26T11:44:39.873Z,28.04
2019-05-26T11:45:39.863Z,27.32
2019-05-26T11:46:39.822Z,27.22
2019-05-26T11:47:39.820Z,27.13
2019-05-26T11:48:40.530Z,27.29
2019-05-26T11:49:39.800Z,27.43
2019-05-26T11:50:39.815Z,27.51
2019-05-26T11:51:39.771Z,27.46
2019-05-26T11:52:39.840Z,27.82
2019-05-26T11:53:39.750Z,27.94
2019-05-26T11:54:40.705Z,27.96
2019-05-26T11:55:39.779Z,28.11
2019-05-26T11:56:39.717Z,27.99
2019-05-26T11:57:39.709Z,27.90
2019-05-26T11:58:39.702Z,27.78
2019-05-26T11:59:39.691Z,27.78
2019-05-26T12:00:40.418Z,27.82
2019-05-26T12:01:39.669Z,27.92
2019-05-26T12:02:39.657Z,27.59
2019-05-26T12:03:40.421Z,26.92
2019-05-26T12:04:39.635Z,26.66
2019-05-26T12:05:40.755Z,26.63
2019-05-26T12:06:39.615Z,26.55
2019-05-26T12:07:40.158Z,26.39
2019-05-26T12:08:39.609Z,26.52
2019-05-26T12:09:39.583Z,27.04
2019-05-26T12:10:39.594Z,27.40
2019-05-26T12:11:39.573Z,26.97
2019-05-26T12:12:39.547Z,27.07
2019-05-26T12:13:39.542Z,27.29
2019-05-26T12:14:39.532Z,27.50
2019-05-26T12:15:39.544Z,27.78
2019-05-26T12:16:39.539Z,27.24
2019-05-26T12:17:39.496Z,26.91
2019-05-26T12:18:39.490Z,27.21
2019-05-26T12:19:39.472Z,27.28
2019-05-26T12:20:39.492Z,27.60
2019-05-26T12:21:39.474Z,27.32
2019-05-26T12:22:39.448Z,26.89
2019-05-26T12:23:39.431Z,27.39
2019-05-26T12:24:39.442Z,27.12
2019-05-26T12:25:39.428Z,26.97
2019-05-26T12:26:39.432Z,27.10
2019-05-26T12:27:39.393Z,26.88
2019-05-26T12:28:39.384Z,27.27
2019-05-26T12:29:39.384Z,27.21
2019-05-26T12:30:39.366Z,27.54
2019-05-26T12:31:39.379Z,27.97
2019-05-26T12:32:39.359Z,28.29
2019-05-26T12:33:39.327Z,28.36
2019-05-26T12:34:39.317Z,28.70
2019-05-26T12:35:39.306Z,28.74
2019-05-26T12:36:39.625Z,28.54
2019-05-26T12:37:40.086Z,28.71
2019-05-26T12:38:39.276Z,28.89
2019-05-26T12:39:39.265Z,28.92
2019-05-26T12:40:40.085Z,28.48
2019-05-26T12:41:39.285Z,28.48
2019-05-26T12:42:39.235Z,28.03
2019-05-26T12:43:39.229Z,27.85
2019-05-26T12:44:49.042Z,27.75
2019-05-26T12:45:40.226Z,27.90
2019-05-26T12:46:39.223Z,28.27
2019-05-26T12:47:39.181Z,28.37
2019-05-26T12:48:39.172Z,28.52
2019-05-26T12:49:39.160Z,28.29
2019-05-26T12:50:40.111Z,28.03
2019-05-26T12:51:39.171Z,27.84
2019-05-26T12:52:40.022Z,27.59
2019-05-26T12:53:39.124Z,27.32
2019-05-26T12:54:39.737Z,27.84